Time;durP1;ratioP1;P1;durP2;ratioP2;P2;SDS_P1;SDS_P2;PMS_P1;PMS_P2;Temp;Humidity;BMP_temperature;BMP_pressure;BME280_temperature;BME280_humidity;BME280_pressure;Samples;Min_cycle;Max_cycle;Signal;HPM_P1;HPM_P2
2023/11/10 00:00:35;;;;;;;0.05;0.05;;;;;;;9.63;59.71;99401.38;5286320;27;20095;-89
2023/11/10 00:03:01;;;;;;;0.88;0.88;;;;;;;9.59;59.71;99393.75;5285770;27;20126;-89
2023/11/10 00:05:27;;;;;;;0.25;0.25;;;;;;;9.40;59.70;99388.31;5303085;27;23711;-88
2023/11/10 00:07:52;;;;;;;0.40;0.40;;;;;;;9.43;59.70;99389.06;5304625;27;20061;-89
2023/11/10 00:10:18;;;;;;;3.78;2.28;;;;;;;9.29;59.70;99398.22;5288683;27;20102;-88
2023/11/10 00:12:43;;;;;;;0.93;0.85;;;;;;;9.42;59.71;99396.91;5321640;27;20107;-88
2023/11/10 00:15:09;;;;;;;1.52;1.42;;;;;;;9.41;59.70;99401.25;5285196;27;20108;-88
2023/11/10 00:17:35;;;;;;;1.62;0.93;;;;;;;9.50;59.71;99406.16;5285125;27;20052;-88
2023/11/10 00:20:00;;;;;;;1.00;0.98;;;;;;;9.51;59.71;99396.63;5303344;27;20060;-88
2023/11/10 00:22:26;;;;;;;4.68;1.45;;;;;;;9.52;59.71;99404.34;5284945;27;20073;-88
2023/11/10 00:24:52;;;;;;;0.85;0.75;;;;;;;9.51;59.71;99404.41;5303120;27;20072;-88
2023/11/10 00:27:18;;;;;;;0.35;0.35;;;;;;;9.35;59.70;99401.44;5285616;27;20167;-89
2023/11/10 00:29:44;;;;;;;0.82;0.80;;;;;;;9.39;59.70;99404.78;5323321;26;20057;-86
2023/11/10 00:32:10;;;;;;;4.78;1.40;;;;;;;9.32;59.69;99401.56;5325668;26;20068;-87
2023/11/10 00:34:36;;;;;;;1.08;1.00;;;;;;;9.26;59.70;99406.97;5288740;26;20091;-88
2023/11/10 00:37:01;;;;;;;0.40;0.40;;;;;;;9.41;59.70;99405.59;5307408;26;20057;-88
2023/11/10 00:39:27;;;;;;;1.58;0.90;;;;;;;9.34;59.70;99410.16;5306913;26;20081;-88
2023/11/10 00:41:52;;;;;;;0.10;0.10;;;;;;;9.30;59.70;99408.56;5306871;26;20069;-88
2023/11/10 00:44:18;;;;;;;6.32;2.03;;;;;;;9.26;59.70;99396.56;5306278;26;32479;-88
2023/11/10 00:46:43;;;;;;;1.45;0.98;;;;;;;9.29;59.69;99388.66;5325051;26;25363;-88
2023/11/10 00:49:09;;;;;;;0.30;0.30;;;;;;;9.23;59.69;99381.09;5306977;26;23406;-88
2023/11/10 00:51:36;;;;;;;1.58;1.48;;;;;;;9.11;59.68;99382.31;5307730;26;20085;-89
2023/11/10 00:54:02;;;;;;;2.60;1.92;;;;;;;9.17;59.69;99379.50;5307310;26;20123;-88
2023/11/10 00:56:27;;;;;;;1.65;1.55;;;;;;;9.09;59.68;99378.91;5307356;26;20035;-89
2023/11/10 00:58:53;;;;;;;0.00;0.00;;;;;;;8.92;59.68;99378.59;5325477;26;20397;-88
2023/11/10 01:01:18;;;;;;;1.65;1.33;;;;;;;8.84;59.67;99384.03;5306928;26;20052;-88
2023/11/10 01:03:44;;;;;;;1.15;1.05;;;;;;;8.86;59.67;99384.84;5306084;26;20114;-88
2023/11/10 01:06:10;;;;;;;0.75;0.75;;;;;;;9.07;59.68;99374.69;5307187;26;20401;-89
2023/11/10 01:08:35;;;;;;;0.62;0.62;;;;;;;8.98;59.68;99369.75;5307492;26;20060;-89
2023/11/10 01:11:01;;;;;;;0.47;0.47;;;;;;;9.26;59.69;99361.97;5306795;26;20105;-89
2023/11/10 01:13:34;;;;;;;3.50;0.85;;;;;;;9.17;59.69;99358.75;5307262;26;20080;-88
2023/11/10 01:16:00;;;;;;;2.42;0.90;;;;;;;9.16;59.69;99359.63;5308795;26;20116;-89
2023/11/10 01:18:25;;;;;;;0.45;0.45;;;;;;;9.06;59.68;99365.19;5307689;26;20739;-89
2023/11/10 01:20:50;;;;;;;0.73;0.73;;;;;;;9.00;59.68;99362.81;5326194;26;20119;-88
2023/11/10 01:23:16;;;;;;;0.60;0.60;;;;;;;8.90;59.68;99362.22;5325602;26;20115;-89
2023/11/10 01:25:41;;;;;;;0.13;0.13;;;;;;;8.95;59.68;99349.09;5307246;26;20072;-89
2023/11/10 01:28:07;;;;;;;1.08;0.98;;;;;;;8.96;59.67;99348.19;5307596;26;20048;-89
2023/11/10 01:30:32;;;;;;;0.82;0.82;;;;;;;8.85;59.68;99346.78;5306984;26;29261;-87
2023/11/10 01:32:57;;;;;;;0.37;0.37;;;;;;;8.83;59.67;99335.63;5307343;26;20351;-89
2023/11/10 01:35:23;;;;;;;0.95;0.95;;;;;;;8.79;59.67;99339.22;5307605;26;20075;-89
2023/11/10 01:37:48;;;;;;;2.47;1.85;;;;;;;8.89;59.67;99334.56;5307354;26;20637;-88
2023/11/10 01:40:14;;;;;;;0.47;0.47;;;;;;;8.77;59.67;99325.44;5308033;26;20060;-89
2023/11/10 01:42:40;;;;;;;0.93;0.93;;;;;;;8.74;59.67;99328.09;5331472;26;20103;-89
2023/11/10 01:45:06;;;;;;;0.15;0.15;;;;;;;8.81;59.66;99318.41;5311643;26;20056;-88
2023/11/10 01:47:31;;;;;;;1.08;1.00;;;;;;;8.84;59.67;99318.31;5289514;26;20047;-89
2023/11/10 01:49:57;;;;;;;0.52;0.52;;;;;;;8.73;59.66;99317.78;5306562;26;20105;-89
2023/11/10 01:52:22;;;;;;;0.75;0.73;;;;;;;8.73;59.66;99317.78;5306905;26;20075;-89
2023/11/10 01:54:47;;;;;;;1.83;1.73;;;;;;;8.73;59.66;99316.03;5305885;26;23395;-87
2023/11/10 01:57:13;;;;;;;1.10;0.98;;;;;;;8.73;59.66;99312.59;5306929;26;20110;-88
2023/11/10 01:59:39;;;;;;;1.65;1.55;;;;;;;8.89;59.67;99309.47;5307031;26;20060;-90
2023/11/10 02:02:05;;;;;;;1.00;0.93;;;;;;;8.99;59.68;99311.75;5289543;26;20068;-89
2023/11/10 02:04:33;;;;;;;0.68;0.68;;;;;;;8.88;59.67;99312.09;5307379;26;20080;-90
2023/11/10 02:06:59;;;;;;;0.88;0.73;;;;;;;8.82;59.67;99326.12;5289084;26;20052;-89
2023/11/10 02:09:25;;;;;;;0.30;0.30;;;;;;;8.87;59.67;99319.03;5307305;26;20072;-89
2023/11/10 02:11:51;;;;;;;1.67;0.65;;;;;;;8.86;59.67;99306.13;5307625;26;20060;-89
2023/11/10 02:14:16;;;;;;;0.32;0.32;;;;;;;8.99;59.68;99304.84;5289246;26;20393;-89
2023/11/10 02:16:42;;;;;;;0.45;0.45;;;;;;;8.74;59.67;99309.94;5307428;26;20093;-89
2023/11/10 02:19:14;;;;;;;0.85;0.85;;;;;;;8.71;59.66;99299.66;5307765;26;20084;-89
2023/11/10 02:21:40;;;;;;;0.13;0.13;;;;;;;8.69;59.66;99303.19;5290495;26;20121;-88
2023/11/10 02:24:07;;;;;;;1.27;0.75;;;;;;;8.58;59.65;99299.22;5324573;26;20656;-89
2023/11/10 02:26:33;;;;;;;0.43;0.43;;;;;;;8.42;59.64;99292.78;5288937;26;20692;-88
2023/11/10 02:28:58;;;;;;;1.10;1.00;;;;;;;8.62;59.66;99294.78;5305805;26;34795;-87
2023/11/10 02:31:24;;;;;;;2.35;0.95;;;;;;;8.64;59.66;99292.13;5305912;26;27273;-88
2023/11/10 02:33:50;;;;;;;0.20;0.20;;;;;;;8.41;59.65;99287.66;5309396;26;20057;-89
2023/11/10 02:36:15;;;;;;;2.72;0.98;;;;;;;8.45;59.65;99284.91;5326654;26;20150;-89
2023/11/10 02:38:42;;;;;;;1.08;0.98;;;;;;;8.41;59.64;99291.09;5308809;26;20365;-89
2023/11/10 02:41:07;;;;;;;0.80;0.22;;;;;;;8.46;59.65;99294.38;5309554;26;20064;-88
2023/11/10 02:43:33;;;;;;;0.10;0.10;;;;;;;8.55;59.65;99294.13;5328222;26;20048;-88
2023/11/10 02:45:58;;;;;;;1.65;1.58;;;;;;;8.48;59.65;99291.75;5309787;26;20059;-89
2023/11/10 02:48:24;;;;;;;0.08;0.08;;;;;;;8.43;59.64;99291.87;5309897;26;20094;-89
2023/11/10 02:50:49;;;;;;;3.87;1.30;;;;;;;8.71;59.66;99281.50;5309449;26;20112;-89
2023/11/10 02:53:15;;;;;;;1.25;1.15;;;;;;;8.65;59.66;99281.69;5309244;26;20056;-87
2023/11/10 02:55:40;;;;;;;2.65;1.08;;;;;;;8.57;59.65;99291.47;5309339;26;20089;-87
2023/11/10 02:58:06;;;;;;;2.72;1.75;;;;;;;8.69;59.66;99285.03;5307735;26;26949;-88
2023/11/10 03:00:31;;;;;;;2.05;1.70;;;;;;;8.66;59.66;99290.34;5309086;26;20670;-89
2023/11/10 03:02:57;;;;;;;1.10;1.00;;;;;;;8.52;59.66;99288.19;5328143;26;20098;-89
2023/11/10 03:05:22;;;;;;;0.17;0.17;;;;;;;8.47;59.65;99279.66;5327258;26;20104;-88
2023/11/10 03:07:48;;;;;;;0.17;0.15;;;;;;;8.50;59.65;99272.62;5308788;26;20060;-89
2023/11/10 03:10:15;;;;;;;2.60;2.17;;;;;;;8.59;59.66;99267.19;5309361;26;20028;-88
2023/11/10 03:12:40;;;;;;;1.15;1.05;;;;;;;8.53;59.66;99269.13;5309595;26;20106;-89
2023/11/10 03:15:07;;;;;;;0.20;0.20;;;;;;;8.57;59.65;99270.72;5309558;26;20234;-88
2023/11/10 03:17:32;;;;;;;0.95;0.95;;;;;;;8.74;59.67;99260.63;5308070;26;20068;-88
2023/11/10 03:19:57;;;;;;;0.65;0.40;;;;;;;8.62;59.66;99268.81;5326968;26;20102;-88
2023/11/10 03:22:23;;;;;;;4.25;1.67;;;;;;;8.31;59.64;99277.53;5308881;26;20052;-87
2023/11/10 03:24:49;;;;;;;4.45;1.27;;;;;;;8.51;59.66;99265.72;5309093;26;20111;-88
2023/11/10 03:27:15;;;;;;;0.47;0.47;;;;;;;8.50;59.65;99266.59;5309078;26;20071;-88
2023/11/10 03:29:40;;;;;;;0.90;0.90;;;;;;;8.61;59.66;99269.72;5308611;26;20057;-88
2023/11/10 03:32:06;;;;;;;0.73;0.73;;;;;;;8.71;59.66;99260.75;5308437;26;24323;-88
2023/11/10 03:34:32;;;;;;;0.73;0.73;;;;;;;8.70;59.66;99260.78;5327282;26;20040;-88
2023/11/10 03:36:57;;;;;;;1.70;1.37;;;;;;;8.64;59.66;99261.00;5308907;26;20111;-88
2023/11/10 03:39:24;;;;;;;1.30;1.20;;;;;;;8.52;59.66;99267.44;5308719;26;20068;-89
2023/11/10 03:41:49;;;;;;;2.67;0.68;;;;;;;8.58;59.65;99262.03;5308969;26;20448;-89
2023/11/10 03:44:15;;;;;;;0.85;0.85;;;;;;;8.48;59.65;99260.63;5307887;26;20072;-88
2023/11/10 03:46:40;;;;;;;1.35;1.12;;;;;;;8.50;59.64;99264.84;5307540;26;20068;-89
2023/11/10 03:49:07;;;;;;;0.30;0.30;;;;;;;8.64;59.65;99264.44;5305939;26;25530;-87
2023/11/10 03:51:32;;;;;;;0.15;0.15;;;;;;;8.64;59.66;99254.06;5306686;26;20060;-86
2023/11/10 03:53:58;;;;;;;2.85;1.55;;;;;;;8.67;59.66;99242.72;5306607;26;20393;-86
2023/11/10 03:56:23;;;;;;;0.37;0.37;;;;;;;8.71;59.66;99245.16;5306377;26;20130;-87
2023/11/10 03:58:49;;;;;;;0.55;0.55;;;;;;;8.78;59.67;99238.06;5324872;26;20126;-87
2023/11/10 04:01:14;;;;;;;0.17;0.17;;;;;;;8.73;59.66;99240.78;5306437;26;20060;-86
2023/11/10 04:03:41;;;;;;;0.40;0.40;;;;;;;8.70;59.66;99229.66;5305649;26;27806;-88
2023/11/10 04:06:06;;;;;;;0.32;0.32;;;;;;;8.53;59.66;99225.03;5306261;26;20074;-88
2023/11/10 04:08:32;;;;;;;0.75;0.30;;;;;;;8.59;59.66;99224.84;5305505;26;20087;-87
2023/11/10 04:10:58;;;;;;;0.75;0.75;;;;;;;8.72;59.66;99215.72;5324397;26;20080;-87
2023/11/10 04:13:23;;;;;;;1.85;1.45;;;;;;;8.55;59.65;99225.84;5306206;26;20078;-87
2023/11/10 04:15:49;;;;;;;2.17;1.37;;;;;;;8.47;59.65;99222.63;5305817;26;25968;-88
2023/11/10 04:18:16;;;;;;;1.20;1.08;;;;;;;8.52;59.66;99225.94;5344920;26;20381;-88
2023/11/10 04:20:43;;;;;;;0.32;0.32;;;;;;;8.65;59.66;99216.00;5307086;26;20057;-88
2023/11/10 04:23:08;;;;;;;0.20;0.20;;;;;;;8.58;59.65;99216.19;5307292;26;20052;-88
2023/11/10 04:25:34;;;;;;;0.85;0.85;;;;;;;8.58;59.65;99212.75;5325322;26;20105;-88
2023/11/10 04:28:00;;;;;;;0.98;0.98;;;;;;;8.66;59.66;99212.50;5325075;26;20107;-87
2023/11/10 04:30:28;;;;;;;2.58;1.60;;;;;;;8.74;59.66;99207.91;5325128;26;20079;-87
2023/11/10 04:32:54;;;;;;;0.47;0.47;;;;;;;8.70;59.66;99207.16;5325234;26;20093;-87
2023/11/10 04:35:19;;;;;;;1.65;1.40;;;;;;;8.60;59.66;99203.19;5324727;26;20060;-88
2023/11/10 04:37:44;;;;;;;0.25;0.25;;;;;;;8.57;59.66;99196.34;5305550;26;25176;-87
2023/11/10 04:40:10;;;;;;;1.05;0.95;;;;;;;8.61;59.66;99197.94;5324441;26;20071;-87
2023/11/10 04:42:36;;;;;;;1.27;1.10;;;;;;;8.50;59.65;99202.59;5324887;26;20057;-87
2023/11/10 04:45:01;;;;;;;0.77;0.77;;;;;;;8.66;59.66;99202.13;5325100;26;20091;-87
2023/11/10 04:47:27;;;;;;;2.05;0.82;;;;;;;8.66;59.66;99196.94;5306601;26;20076;-87
2023/11/10 04:49:52;;;;;;;3.50;0.85;;;;;;;8.68;59.66;99193.37;5324970;26;20431;-87
2023/11/10 04:52:18;;;;;;;0.62;0.62;;;;;;;8.78;59.67;99196.53;5305391;26;26124;-87
2023/11/10 04:54:45;;;;;;;1.00;0.75;;;;;;;8.77;59.67;99194.84;5324573;26;20080;-86
2023/11/10 04:57:11;;;;;;;0.52;0.52;;;;;;;8.68;59.66;99190.78;5324710;26;20421;-87
2023/11/10 04:59:39;;;;;;;1.10;1.02;;;;;;;8.74;59.66;99190.56;5305148;26;31964;-88
2023/11/10 05:02:08;;;;;;;1.15;1.10;;;;;;;8.74;59.67;99187.97;5307299;26;20409;-88
2023/11/10 05:04:36;;;;;;;5.82;1.05;;;;;;;8.79;59.66;99180.91;5306848;26;20075;-88
2023/11/10 05:07:01;;;;;;;2.25;0.75;;;;;;;8.92;59.67;99173.53;5306756;26;20079;-88
2023/11/10 05:09:26;;;;;;;0.95;0.77;;;;;;;8.88;59.67;99180.59;5306793;26;20053;-88
2023/11/10 05:11:53;;;;;;;0.50;0.50;;;;;;;8.90;59.68;99177.94;5305786;26;30961;-88
2023/11/10 05:14:18;;;;;;;1.02;0.95;;;;;;;8.87;59.66;99184.09;5306004;26;20413;-88
2023/11/10 05:16:44;;;;;;;1.50;0.90;;;;;;;8.82;59.67;99178.22;5305923;26;20060;-88
2023/11/10 05:19:09;;;;;;;0.60;0.60;;;;;;;8.87;59.67;99170.25;5306580;26;20084;-87
2023/11/10 05:21:34;;;;;;;1.50;1.40;;;;;;;8.88;59.67;99169.38;5324468;26;30047;-89
2023/11/10 05:24:00;;;;;;;4.35;1.33;;;;;;;8.77;59.67;99166.31;5306753;26;31333;-89
2023/11/10 05:26:25;;;;;;;0.47;0.45;;;;;;;8.86;59.67;99169.41;5307497;26;20052;-88
2023/11/10 05:28:51;;;;;;;0.93;0.47;;;;;;;8.92;59.68;99173.53;5307417;26;20126;-89
2023/11/10 05:31:16;;;;;;;1.60;1.50;;;;;;;8.93;59.67;99172.63;5324734;26;29200;-89
2023/11/10 05:33:42;;;;;;;6.85;1.33;;;;;;;8.82;59.67;99174.78;5307201;26;20088;-88
2023/11/10 05:36:08;;;;;;;1.73;1.62;;;;;;;8.88;59.67;99174.56;5325991;26;20107;-89
2023/11/10 05:38:33;;;;;;;0.37;0.37;;;;;;;8.76;59.66;99177.59;5306806;26;20109;-89
2023/11/10 05:40:58;;;;;;;3.62;2.37;;;;;;;8.85;59.67;99174.66;5306433;26;20166;-89
2023/11/10 05:43:24;;;;;;;2.53;0.62;;;;;;;8.76;59.67;99175.84;5307568;26;20094;-89
2023/11/10 05:45:50;;;;;;;7.78;1.70;;;;;;;8.87;59.67;99171.09;5308053;26;20110;-90
2023/11/10 05:48:16;;;;;;;0.28;0.28;;;;;;;8.97;59.68;99171.63;5307818;26;20071;-89
2023/11/10 05:50:41;;;;;;;1.15;1.05;;;;;;;8.84;59.67;99166.03;5306917;26;20072;-89
2023/11/10 05:53:06;;;;;;;1.12;0.88;;;;;;;8.97;59.68;99171.63;5307753;26;20080;-89
2023/11/10 05:55:34;;;;;;;0.00;0.00;;;;;;;8.96;59.67;99169.09;5305718;26;20120;-85
2023/11/10 05:57:59;;;;;;;2.30;2.05;;;;;;;9.08;59.68;99174.72;5324786;26;20057;-87
2023/11/10 06:00:24;;;;;;;1.12;1.10;;;;;;;9.06;59.68;99173.91;5306955;26;20111;-88
2023/11/10 06:02:50;;;;;;;4.57;2.20;;;;;;;9.03;59.68;99173.19;5306050;26;20258;-88
2023/11/10 06:05:15;;;;;;;0.60;0.60;;;;;;;9.14;59.69;99179.69;5305798;26;28927;-88
2023/11/10 06:07:45;;;;;;;3.17;1.85;;;;;;;9.21;59.69;99170.75;5305953;26;20099;-88
2023/11/10 06:10:12;;;;;;;0.00;0.00;;;;;;;9.13;59.69;99177.16;5288575;26;20101;-88
2023/11/10 06:12:41;;;;;;;2.78;0.75;;;;;;;9.25;59.68;99181.06;5306772;26;20112;-88
2023/11/10 06:15:09;;;;;;;0.98;0.60;;;;;;;9.30;59.69;99185.19;5310450;26;20399;-89
2023/11/10 06:17:35;;;;;;;0.25;0.25;;;;;;;9.37;59.70;99188.41;5308923;26;20104;-88
2023/11/10 06:20:01;;;;;;;0.60;0.60;;;;;;;9.44;59.70;99182.06;5306729;26;20076;-88
2023/11/10 06:22:27;;;;;;;1.92;1.60;;;;;;;9.47;59.70;99167.25;5306078;26;20065;-88
2023/11/10 06:24:52;;;;;;;1.33;1.00;;;;;;;9.56;59.70;99171.25;5306175;26;20063;-89
2023/11/10 06:27:18;;;;;;;4.12;0.93;;;;;;;9.49;59.71;99178.44;5306934;26;20075;-87
2023/11/10 06:29:43;;;;;;;2.17;0.85;;;;;;;9.59;59.71;99178.94;5306010;26;20076;-89
2023/11/10 06:32:11;;;;;;;1.55;1.35;;;;;;;9.43;59.70;99170.84;5306816;26;20139;-89
2023/11/10 06:34:36;;;;;;;2.80;1.85;;;;;;;9.48;59.70;99163.75;5307618;26;20436;-87
2023/11/10 06:37:02;;;;;;;0.43;0.43;;;;;;;9.53;59.71;99171.38;5306995;26;20056;-88
2023/11/10 06:39:27;;;;;;;1.98;1.02;;;;;;;9.67;59.71;99160.44;5306429;26;20072;-88
2023/11/10 06:41:52;;;;;;;0.25;0.25;;;;;;;9.62;59.71;99162.37;5306240;26;20080;-88
2023/11/10 06:44:19;;;;;;;0.65;0.65;;;;;;;9.67;59.72;99157.84;5305888;26;25738;-87
2023/11/10 06:46:45;;;;;;;0.98;0.98;;;;;;;9.70;59.71;99158.59;5306704;26;20410;-88
2023/11/10 06:49:10;;;;;;;4.47;1.90;;;;;;;9.66;59.71;99162.19;5288042;26;20087;-88
2023/11/10 06:51:36;;;;;;;4.90;0.82;;;;;;;9.73;59.72;99165.44;5306316;26;20064;-88
2023/11/10 06:54:01;;;;;;;1.87;1.17;;;;;;;9.73;59.72;99162.84;5305528;26;28342;-88
2023/11/10 06:56:26;;;;;;;0.50;0.50;;;;;;;9.68;59.71;99167.34;5323890;26;20080;-88
2023/11/10 06:58:52;;;;;;;0.82;0.77;;;;;;;9.74;59.72;99173.16;5304501;26;25870;-88
2023/11/10 07:01:17;;;;;;;1.08;0.98;;;;;;;9.80;59.72;99183.31;5322522;26;20080;-88
2023/11/10 07:03:43;;;;;;;2.40;2.20;;;;;;;9.90;59.73;99185.56;5304473;26;20083;-88
2023/11/10 07:06:08;;;;;;;1.95;1.83;;;;;;;9.96;59.73;99181.00;5304913;26;20424;-86
2023/11/10 07:08:34;;;;;;;1.90;1.80;;;;;;;9.85;59.72;99189.19;5304608;26;20061;-87
2023/11/10 07:11:02;;;;;;;1.85;0.82;;;;;;;9.99;59.73;99191.28;5304845;26;20068;-88
2023/11/10 07:13:27;;;;;;;4.80;1.48;;;;;;;9.92;59.72;99182.00;5305186;26;20072;-90
2023/11/10 07:15:54;;;;;;;1.45;0.77;;;;;;;9.85;59.72;99183.16;5304736;26;20122;-87
2023/11/10 07:18:21;;;;;;;3.30;0.65;;;;;;;9.93;59.72;99188.88;5305415;26;20052;-88
2023/11/10 07:20:46;;;;;;;0.68;0.68;;;;;;;9.83;59.72;99188.41;5306118;26;20083;-88
2023/11/10 07:23:11;;;;;;;1.92;1.75;;;;;;;10.11;59.74;99175.19;5305453;26;20076;-88
2023/11/10 07:25:37;;;;;;;0.35;0.35;;;;;;;10.06;59.73;99177.13;5324276;26;20076;-88
2023/11/10 07:28:03;;;;;;;1.08;1.05;;;;;;;9.97;59.73;99182.69;5305775;26;20064;-88
2023/11/10 07:30:29;;;;;;;0.43;0.43;;;;;;;10.05;59.74;99184.97;5305845;26;20060;-88
2023/11/10 07:32:54;;;;;;;0.98;0.43;;;;;;;10.14;59.73;99169.84;5305750;26;20094;-88
2023/11/10 07:35:20;;;;;;;0.05;0.05;;;;;;;10.18;59.74;99177.56;5305722;26;20071;-88
2023/11/10 07:37:46;;;;;;;0.62;0.62;;;;;;;10.34;59.75;99171.69;5305924;26;20677;-88
2023/11/10 07:40:13;;;;;;;1.60;1.50;;;;;;;10.37;59.75;99171.56;5305744;26;20084;-88
2023/11/10 07:42:44;;;;;;;1.27;1.17;;;;;;;10.40;59.76;99168.00;5287767;26;20091;-89
2023/11/10 07:45:14;;;;;;;1.70;1.60;;;;;;;10.34;59.75;99170.84;5311458;26;20044;-88
2023/11/10 07:47:47;;;;;;;8.35;1.30;;;;;;;10.57;59.76;99160.34;5307154;26;20481;-88
2023/11/10 07:50:15;;;;;;;0.90;0.82;;;;;;;10.53;59.75;99164.00;5305698;26;20080;-88
2023/11/10 07:52:41;;;;;;;1.35;1.25;;;;;;;10.67;59.76;99161.69;5305895;26;20068;-88
2023/11/10 07:55:07;;;;;;;0.30;0.30;;;;;;;10.60;59.76;99157.63;5306107;26;20064;-88
2023/11/10 07:57:33;;;;;;;0.40;0.40;;;;;;;10.66;59.77;99159.16;5286935;26;20095;-88
2023/11/10 07:59:59;;;;;;;1.55;1.45;;;;;;;10.71;59.77;99163.25;5324163;26;20146;-88
2023/11/10 08:02:25;;;;;;;0.57;0.57;;;;;;;10.84;59.79;99154.91;5288035;26;20114;-87
2023/11/10 08:04:50;;;;;;;3.12;2.22;;;;;;;10.77;59.78;99152.56;5305787;26;20104;-88
2023/11/10 08:07:16;;;;;;;0.50;0.50;;;;;;;10.89;59.78;99143.41;5305761;26;20564;-88
2023/11/10 08:09:41;;;;;;;0.35;0.35;;;;;;;10.81;59.78;99140.25;5323415;26;24869;-87
2023/11/10 08:12:07;;;;;;;0.30;0.30;;;;;;;10.85;59.78;99139.22;5323923;26;20473;-88
2023/11/10 08:14:32;;;;;;;1.67;1.33;;;;;;;11.04;59.78;99140.13;5305761;26;20393;-88
2023/11/10 08:16:58;;;;;;;3.70;0.68;;;;;;;11.01;59.79;99134.19;5323923;26;20199;-88
2023/11/10 08:19:23;;;;;;;3.00;1.35;;;;;;;11.24;59.80;99130.59;5323304;26;26200;-88
2023/11/10 08:21:49;;;;;;;1.48;0.85;;;;;;;11.17;59.79;99126.56;5323236;26;20807;-88
2023/11/10 08:24:15;;;;;;;1.65;1.55;;;;;;;11.30;59.79;99123.34;5305678;26;20097;-88
2023/11/10 08:26:40;;;;;;;2.60;2.12;;;;;;;11.24;59.80;99120.16;5343967;26;20072;-88
2023/11/10 08:29:07;;;;;;;0.90;0.80;;;;;;;11.60;59.83;99115.06;5305584;26;20463;-88
2023/11/10 08:31:32;;;;;;;6.05;2.03;;;;;;;11.68;59.83;99120.75;5323309;26;20068;-88
2023/11/10 08:33:58;;;;;;;0.88;0.40;;;;;;;11.67;59.83;99125.13;5324066;26;20103;-88
2023/11/10 08:36:23;;;;;;;3.28;1.58;;;;;;;11.75;59.82;99118.69;5324019;26;20092;-88
2023/11/10 08:38:51;;;;;;;0.52;0.52;;;;;;;11.86;59.84;99135.56;5324027;26;20121;-88
2023/11/10 08:41:17;;;;;;;0.80;0.80;;;;;;;11.99;59.85;99122.78;5306106;26;20085;-89
2023/11/10 08:43:42;;;;;;;0.65;0.65;;;;;;;11.92;59.84;99119.63;5305345;26;20116;-87
2023/11/10 08:46:08;;;;;;;4.00;0.85;;;;;;;11.87;59.83;99112.94;5323840;26;20068;-88
2023/11/10 08:48:33;;;;;;;2.95;1.02;;;;;;;11.90;59.84;99111.03;5305054;26;21505;-88
2023/11/10 08:50:59;;;;;;;1.02;1.02;;;;;;;11.96;59.83;99108.13;5323603;26;20087;-87
2023/11/10 08:53:25;;;;;;;1.12;1.08;;;;;;;11.98;59.85;99108.91;5304992;26;20057;-88
2023/11/10 08:55:50;;;;;;;0.57;0.57;;;;;;;11.96;59.83;99109.91;5305611;26;20092;-88
2023/11/10 08:58:16;;;;;;;0.82;0.80;;;;;;;12.06;59.85;99105.06;5304985;26;28113;-88
2023/11/10 09:00:43;;;;;;;0.35;0.35;;;;;;;12.11;59.84;99106.56;5305432;26;20455;-88
2023/11/10 09:03:08;;;;;;;0.20;0.20;;;;;;;12.22;59.86;99111.25;5305407;26;20060;-88
2023/11/10 09:05:34;;;;;;;1.30;0.60;;;;;;;12.30;59.86;99106.47;5305293;26;20071;-88
2023/11/10 09:08:00;;;;;;;2.15;1.95;;;;;;;12.42;59.86;99108.50;5305842;26;20084;-88
2023/11/10 09:10:25;;;;;;;1.65;1.52;;;;;;;12.37;59.86;99112.28;5304826;26;21509;-88
2023/11/10 09:12:50;;;;;;;1.10;0.47;;;;;;;12.53;59.87;99106.19;5324014;26;20119;-87
2023/11/10 09:15:16;;;;;;;1.08;0.98;;;;;;;12.60;59.88;99106.75;5311136;26;20122;-89
2023/11/10 09:17:42;;;;;;;2.00;1.37;;;;;;;12.62;59.88;99104.91;5324556;26;20068;-88
2023/11/10 09:20:08;;;;;;;1.50;1.10;;;;;;;12.59;59.87;99097.22;5287108;26;20067;-88
2023/11/10 09:22:36;;;;;;;1.02;0.85;;;;;;;12.68;59.88;99106.34;5305333;26;20427;-88
2023/11/10 09:25:04;;;;;;;1.95;1.33;;;;;;;12.69;59.88;99105.41;5305915;26;20067;-88
2023/11/10 09:27:30;;;;;;;0.03;0.03;;;;;;;12.75;59.89;99094.66;5287650;26;20064;-88
2023/11/10 09:29:55;;;;;;;0.62;0.62;;;;;;;12.90;59.89;99099.09;5305017;26;20064;-88
2023/11/10 09:32:22;;;;;;;1.65;1.08;;;;;;;13.10;59.90;99098.06;5305283;26;20360;-88
2023/11/10 09:34:47;;;;;;;0.47;0.47;;;;;;;13.15;59.90;99096.06;5323344;26;20072;-88
2023/11/10 09:37:14;;;;;;;4.45;1.80;;;;;;;13.23;59.90;99082.59;5304384;26;35537;-89
2023/11/10 09:39:39;;;;;;;1.50;1.25;;;;;;;13.31;59.91;99072.59;5305204;26;20075;-88
2023/11/10 09:42:06;;;;;;;0.57;0.57;;;;;;;13.52;59.93;99076.66;5304893;26;20056;-88
2023/11/10 09:44:34;;;;;;;5.28;1.27;;;;;;;13.47;59.91;99066.44;5305130;26;20063;-89
2023/11/10 09:47:00;;;;;;;0.10;0.10;;;;;;;13.56;59.92;99064.25;5287336;26;20061;-88
2023/11/10 09:49:25;;;;;;;0.20;0.20;;;;;;;13.60;59.93;99053.53;5305083;26;20079;-88
2023/11/10 09:51:51;;;;;;;0.70;0.70;;;;;;;13.69;59.93;99055.63;5322837;26;24663;-88
2023/11/10 09:54:17;;;;;;;1.27;1.00;;;;;;;13.70;59.93;99049.47;5304914;26;20313;-88
2023/11/10 09:56:43;;;;;;;0.40;0.40;;;;;;;13.81;59.94;99046.28;5287036;26;20472;-88
2023/11/10 09:59:08;;;;;;;3.20;1.90;;;;;;;13.91;59.95;99044.81;5305091;26;20107;-88
2023/11/10 10:01:34;;;;;;;0.80;0.80;;;;;;;13.99;59.95;99026.94;5305032;26;20070;-88
2023/11/10 10:03:59;;;;;;;2.37;0.95;;;;;;;13.95;59.94;99024.53;5305006;26;20374;-88
2023/11/10 10:06:25;;;;;;;2.62;1.52;;;;;;;14.09;59.95;99019.38;5322967;26;22215;-88
2023/11/10 10:08:57;;;;;;;0.65;0.60;;;;;;;14.10;59.94;99008.81;5305389;26;20110;-88
2023/11/10 10:11:23;;;;;;;2.37;1.90;;;;;;;14.08;59.95;99022.94;5305658;26;20095;-88
2023/11/10 10:13:48;;;;;;;0.47;0.47;;;;;;;14.17;59.95;99006.66;5304187;26;29095;-88
2023/11/10 10:16:13;;;;;;;1.45;1.37;;;;;;;14.04;59.96;99000.47;5304857;26;20084;-88
2023/11/10 10:18:42;;;;;;;5.07;1.92;;;;;;;13.98;59.95;98988.59;5304344;26;29434;-88
2023/11/10 10:21:08;;;;;;;0.95;0.93;;;;;;;14.04;59.95;98983.00;5305446;26;20056;-88
2023/11/10 10:23:33;;;;;;;7.07;1.42;;;;;;;14.00;59.94;98975.44;5323317;26;20108;-88
2023/11/10 10:25:59;;;;;;;2.15;1.27;;;;;;;13.89;59.95;98985.66;5305027;26;20075;-88
2023/11/10 10:28:24;;;;;;;0.45;0.45;;;;;;;13.97;59.95;98981.69;5305000;26;20080;-88
2023/11/10 10:30:50;;;;;;;0.10;0.10;;;;;;;13.90;59.95;98975.09;5323182;26;20096;-88
2023/11/10 10:33:16;;;;;;;0.80;0.60;;;;;;;13.91;59.95;98965.47;5304842;26;20114;-88
2023/11/10 10:35:43;;;;;;;1.52;1.42;;;;;;;13.96;59.95;98964.31;5343424;26;20087;-88
2023/11/10 10:38:08;;;;;;;1.35;1.25;;;;;;;14.18;59.96;98966.47;5305113;26;20064;-89
2023/11/10 10:40:35;;;;;;;0.65;0.65;;;;;;;14.23;59.97;98946.12;5305036;26;20092;-88
2023/11/10 10:43:02;;;;;;;0.20;0.20;;;;;;;14.16;59.96;98960.50;5305234;26;20088;-89
2023/11/10 10:45:27;;;;;;;1.30;0.32;;;;;;;14.21;59.96;98952.41;5310741;26;20025;-87
2023/11/10 10:47:53;;;;;;;1.15;0.98;;;;;;;14.27;59.97;98949.41;5305396;26;20118;-88
2023/11/10 10:50:18;;;;;;;1.37;1.27;;;;;;;14.20;59.96;98940.25;5323407;26;20048;-88
2023/11/10 10:52:44;;;;;;;0.88;0.88;;;;;;;14.35;59.97;98942.75;5304946;26;20086;-88
2023/11/10 10:55:09;;;;;;;1.45;0.32;;;;;;;14.36;59.97;98931.34;5305664;26;20149;-88
2023/11/10 10:57:35;;;;;;;0.62;0.60;;;;;;;14.16;59.96;98931.72;5304988;26;27487;-88
2023/11/10 11:00:09;;;;;;;0.20;0.20;;;;;;;14.12;59.96;98922.34;5305672;26;20064;-89
2023/11/10 11:02:41;;;;;;;13.60;1.17;;;;;;;14.19;59.96;98917.59;5289149;26;20056;-87
2023/11/10 11:05:08;;;;;;;1.17;0.85;;;;;;;14.21;59.96;98910.53;5306320;26;20757;-88
2023/11/10 11:08:02;;;;;;;0.40;0.40;;;;;;;14.11;59.96;98892.72;5324556;26;20499;-88
2023/11/10 11:10:30;;;;;;;0.22;0.22;;;;;;;14.12;59.96;98893.56;5305884;26;20837;-88
2023/11/10 11:13:03;;;;;;;1.45;1.35;;;;;;;13.93;59.94;98891.19;5324376;26;20820;-88
2023/11/10 11:15:53;;;;;;;3.65;0.35;;;;;;;13.96;59.96;98888.44;5324001;26;20883;-88
2023/11/10 11:18:18;;;;;;;8.40;2.67;;;;;;;13.99;59.95;98882.19;5344215;26;20118;-89
2023/11/10 11:20:47;;;;;;;1.25;1.15;;;;;;;14.00;59.95;98870.78;5344134;26;20057;-88
2023/11/10 11:23:13;;;;;;;0.80;0.80;;;;;;;14.04;59.96;98869.66;5287417;26;20041;-88
2023/11/10 11:25:40;;;;;;;1.73;0.82;;;;;;;14.18;59.96;98874.88;5306078;26;20080;-88
2023/11/10 11:28:05;;;;;;;1.05;0.25;;;;;;;14.12;59.96;98864.78;5287470;26;20056;-88
2023/11/10 11:30:37;;;;;;;0.88;0.88;;;;;;;14.07;59.95;98859.84;5304550;26;35098;-89
2023/11/10 11:33:11;;;;;;;0.47;0.47;;;;;;;14.08;59.95;98858.91;5306034;26;20411;-88